sensor_id;sensor_type;location;lat;lon;timestamp;pressure;altitude;pressure_sealevel;temperature;humidity
73297;BME280;61524;50.938;11.396;2023-07-20T00:01:10;98721.28;;;15.30;94.57
73297;BME280;61524;50.938;11.396;2023-07-20T00:03:36;98718.81;;;15.33;94.52
73297;BME280;61524;50.938;11.396;2023-07-20T00:06:01;98724.53;;;15.27;96.02
73297;BME280;61524;50.938;11.396;2023-07-20T00:08:27;98727.56;;;15.20;95.23
73297;BME280;61524;50.938;11.396;2023-07-20T00:10:52;98718.66;;;15.25;95.49
73297;BME280;61524;50.938;11.396;2023-07-20T00:13:18;98721.63;;;15.23;95.42
73297;BME280;61524;50.938;11.396;2023-07-20T00:15:44;98712.75;;;15.22;94.64
73297;BME280;61524;50.938;11.396;2023-07-20T00:18:09;98727.81;;;15.23;94.82
73297;BME280;61524;50.938;11.396;2023-07-20T00:20:35;98725.72;;;15.15;93.97
73297;BME280;61524;50.938;11.396;2023-07-20T00:23:00;98730.31;;;15.15;94.78
73297;BME280;61524;50.938;11.396;2023-07-20T00:25:26;98719.91;;;15.08;95.34
73297;BME280;61524;50.938;11.396;2023-07-20T00:27:51;98718.06;;;15.04;95.04
73297;BME280;61524;50.938;11.396;2023-07-20T00:30:17;98734.84;;;14.90;94.73
73297;BME280;61524;50.938;11.396;2023-07-20T00:32:44;98730.59;;;14.84;94.57
73297;BME280;61524;50.938;11.396;2023-07-20T00:35:09;98728.59;;;14.66;95.06
73297;BME280;61524;50.938;11.396;2023-07-20T00:37:36;98734.00;;;14.61;95.00
73297;BME280;61524;50.938;11.396;2023-07-20T00:40:01;98732.03;;;14.32;95.67
73297;BME280;61524;50.938;11.396;2023-07-20T00:42:30;98733.63;;;14.33;96.00
73297;BME280;61524;50.938;11.396;2023-07-20T00:44:56;98745.22;;;14.29;95.77
73297;BME280;61524;50.938;11.396;2023-07-20T00:47:21;98731.53;;;14.20;96.64
73297;BME280;61524;50.938;11.396;2023-07-20T00:49:47;98728.34;;;14.18;96.44
73297;BME280;61524;50.938;11.396;2023-07-20T00:52:14;98730.19;;;14.23;96.87
73297;BME280;61524;50.938;11.396;2023-07-20T00:54:41;98715.97;;;14.22;95.82
73297;BME280;61524;50.938;11.396;2023-07-20T00:57:07;98730.72;;;14.25;95.73
73297;BME280;61524;50.938;11.396;2023-07-20T00:59:34;98722.44;;;14.16;95.39
73297;BME280;61524;50.938;11.396;2023-07-20T01:01:59;98728.84;;;14.20;96.45
73297;BME280;61524;50.938;11.396;2023-07-20T01:04:25;98726.72;;;14.22;95.71
73297;BME280;61524;50.938;11.396;2023-07-20T01:07:14;98729.41;;;14.22;96.31
73297;BME280;61524;50.938;11.396;2023-07-20T01:09:52;98724.63;;;14.09;97.29
73297;BME280;61524;50.938;11.396;2023-07-20T01:12:43;98732.69;;;14.09;96.46
73297;BME280;61524;50.938;11.396;2023-07-20T01:15:09;98731.06;;;14.13;96.53
73297;BME280;61524;50.938;11.396;2023-07-20T01:17:35;98719.84;;;14.01;96.45
73297;BME280;61524;50.938;11.396;2023-07-20T01:20:01;98722.53;;;14.01;96.82
73297;BME280;61524;50.938;11.396;2023-07-20T01:31:13;98711.38;;;13.78;96.75
73297;BME280;61524;50.938;11.396;2023-07-20T01:33:40;98718.88;;;13.71;96.68
73297;BME280;61524;50.938;11.396;2023-07-20T01:36:07;98707.13;;;13.62;96.86
73297;BME280;61524;50.938;11.396;2023-07-20T01:38:34;98711.44;;;13.63;96.69
73297;BME280;61524;50.938;11.396;2023-07-20T01:40:59;98725.38;;;13.65;96.01
73297;BME280;61524;50.938;11.396;2023-07-20T01:43:25;98711.94;;;13.65;96.71
73297;BME280;61524;50.938;11.396;2023-07-20T01:45:50;98710.34;;;13.59;96.47
73297;BME280;61524;50.938;11.396;2023-07-20T01:48:16;98721.06;;;13.64;96.15
73297;BME280;61524;50.938;11.396;2023-07-20T01:50:41;98718.38;;;13.69;96.26
73297;BME280;61524;50.938;11.396;2023-07-20T01:53:08;98721.03;;;13.74;95.74
73297;BME280;61524;50.938;11.396;2023-07-20T01:55:33;98727.47;;;13.83;96.15
73297;BME280;61524;50.938;11.396;2023-07-20T01:57:58;98722.56;;;13.90;95.68
73297;BME280;61524;50.938;11.396;2023-07-20T02:00:26;98721.75;;;13.95;96.22
73297;BME280;61524;50.938;11.396;2023-07-20T02:02:51;98721.78;;;13.90;96.21
73297;BME280;61524;50.938;11.396;2023-07-20T02:05:17;98719.41;;;13.83;96.31
73297;BME280;61524;50.938;11.396;2023-07-20T02:07:43;98725.31;;;13.75;95.54
73297;BME280;61524;50.938;11.396;2023-07-20T02:10:09;98724.03;;;13.68;95.94
73297;BME280;61524;50.938;11.396;2023-07-20T02:12:34;98728.34;;;13.58;95.60
73297;BME280;61524;50.938;11.396;2023-07-20T02:15:01;98722.66;;;13.70;95.95
73297;BME280;61524;50.938;11.396;2023-07-20T02:17:27;98727.22;;;13.70;95.42
73297;BME280;61524;50.938;11.396;2023-07-20T02:19:53;98728.81;;;13.76;95.96
73297;BME280;61524;50.938;11.396;2023-07-20T02:22:20;98734.19;;;13.76;95.35
73297;BME280;61524;50.938;11.396;2023-07-20T02:24:46;98727.38;;;13.93;94.74
73297;BME280;61524;50.938;11.396;2023-07-20T02:27:11;98727.09;;;14.00;95.08
73297;BME280;61524;50.938;11.396;2023-07-20T02:29:37;98722.53;;;14.01;95.48
73297;BME280;61524;50.938;11.396;2023-07-20T02:32:03;98717.19;;;13.96;96.36
73297;BME280;61524;50.938;11.396;2023-07-20T02:34:28;98739.78;;;13.89;95.54
73297;BME280;61524;50.938;11.396;2023-07-20T02:36:54;98735.00;;;13.71;96.67
73297;BME280;61524;50.938;11.396;2023-07-20T02:39:21;98729.94;;;13.64;96.83
73297;BME280;61524;50.938;11.396;2023-07-20T02:41:47;98733.41;;;13.70;96.28
73297;BME280;61524;50.938;11.396;2023-07-20T02:44:13;98730.72;;;13.70;96.44
73297;BME280;61524;50.938;11.396;2023-07-20T02:46:39;98743.38;;;13.59;96.65
73297;BME280;61524;50.938;11.396;2023-07-20T02:49:04;98730.78;;;13.45;96.29
73297;BME280;61524;50.938;11.396;2023-07-20T02:51:30;98733.47;;;13.50;96.95
73297;BME280;61524;50.938;11.396;2023-07-20T02:53:55;98733.50;;;13.34;97.90
73297;BME280;61524;50.938;11.396;2023-07-20T02:56:21;98723.59;;;13.40;97.47
73297;BME280;61524;50.938;11.396;2023-07-20T02:58:48;98735.91;;;13.41;96.71
73297;BME280;61524;50.938;11.396;2023-07-20T03:01:13;98728.66;;;13.47;97.57
73297;BME280;61524;50.938;11.396;2023-07-20T03:03:40;98731.84;;;13.54;96.68
73297;BME280;61524;50.938;11.396;2023-07-20T03:06:06;98729.44;;;13.57;96.56
73297;BME280;61524;50.938;11.396;2023-07-20T03:08:34;98734.53;;;13.54;97.11
73297;BME280;61524;50.938;11.396;2023-07-20T03:10:59;98735.91;;;13.51;97.44
73297;BME280;61524;50.938;11.396;2023-07-20T03:13:24;98745.81;;;13.51;97.95
73297;BME280;61524;50.938;11.396;2023-07-20T03:15:52;98735.03;;;13.61;97.28
73297;BME280;61524;50.938;11.396;2023-07-20T03:18:17;98738.78;;;13.70;96.64
73297;BME280;61524;50.938;11.396;2023-07-20T03:20:43;98734.47;;;13.69;98.06
73297;BME280;61524;50.938;11.396;2023-07-20T03:23:08;98735.22;;;13.85;96.66
73297;BME280;61524;50.938;11.396;2023-07-20T03:25:34;98736.31;;;13.84;96.91
73297;BME280;61524;50.938;11.396;2023-07-20T03:28:02;98728.84;;;13.71;96.84
73297;BME280;61524;50.938;11.396;2023-07-20T03:30:28;98737.94;;;13.80;96.71
73297;BME280;61524;50.938;11.396;2023-07-20T03:32:53;98743.59;;;13.78;97.44
73297;BME280;61524;50.938;11.396;2023-07-20T03:35:19;98732.56;;;13.80;98.36
73297;BME280;61524;50.938;11.396;2023-07-20T03:37:44;98742.50;;;13.79;97.92
73297;BME280;61524;50.938;11.396;2023-07-20T03:40:10;98722.97;;;13.63;97.18
73297;BME280;61524;50.938;11.396;2023-07-20T03:42:35;98760.72;;;13.82;97.35
73297;BME280;61524;50.938;11.396;2023-07-20T03:45:01;98764.50;;;13.81;98.84
73297;BME280;61524;50.938;11.396;2023-07-20T03:47:28;98746.75;;;13.90;98.16
73297;BME280;61524;50.938;11.396;2023-07-20T03:49:53;98758.72;;;14.13;98.55
73297;BME280;61524;50.938;11.396;2023-07-20T03:52:19;98734.75;;;14.27;98.78
73297;BME280;61524;50.938;11.396;2023-07-20T03:54:44;98749.34;;;14.60;98.80
73297;BME280;61524;50.938;11.396;2023-07-20T03:57:09;98753.78;;;14.80;98.03
73297;BME280;61524;50.938;11.396;2023-07-20T03:59:37;98751.75;;;14.96;96.97
73297;BME280;61524;50.938;11.396;2023-07-20T04:02:02;98746.63;;;14.94;97.30
73297;BME280;61524;50.938;11.396;2023-07-20T04:04:28;98756.19;;;15.11;96.81
73297;BME280;61524;50.938;11.396;2023-07-20T04:06:53;98759.50;;;15.03;96.13
73297;BME280;61524;50.938;11.396;2023-07-20T04:09:18;98755.44;;;15.05;95.71
73297;BME280;61524;50.938;11.396;2023-07-20T04:11:44;98766.22;;;15.00;95.56
73297;BME280;61524;50.938;11.396;2023-07-20T04:14:09;98739.66;;;14.93;96.05
73297;BME280;61524;50.938;11.396;2023-07-20T04:16:35;98756.19;;;15.11;95.62
73297;BME280;61524;50.938;11.396;2023-07-20T04:19:00;98754.53;;;15.15;95.08
73297;BME280;61524;50.938;11.396;2023-07-20T04:21:27;98755.88;;;15.17;95.14
73297;BME280;61524;50.938;11.396;2023-07-20T04:23:52;98758.19;;;15.29;95.43
73297;BME280;61524;50.938;11.396;2023-07-20T04:26:18;98766.75;;;15.31;95.96
73297;BME280;61524;50.938;11.396;2023-07-20T04:28:43;98761.63;;;15.35;96.00
73297;BME280;61524;50.938;11.396;2023-07-20T04:31:12;98765.16;;;15.30;96.16
73297;BME280;61524;50.938;11.396;2023-07-20T04:33:39;98766.31;;;15.24;96.30
73297;BME280;61524;50.938;11.396;2023-07-20T04:36:05;98760.91;;;15.24;96.64
73297;BME280;61524;50.938;11.396;2023-07-20T04:38:30;98755.00;;;15.22;96.45
73297;BME280;61524;50.938;11.396;2023-07-20T04:40:56;98760.34;;;15.27;96.38
73297;BME280;61524;50.938;11.396;2023-07-20T04:43:21;98774.34;;;15.29;96.29
73297;BME280;61524;50.938;11.396;2023-07-20T04:45:47;98769.88;;;15.43;95.49
73297;BME280;61524;50.938;11.396;2023-07-20T04:48:14;98776.59;;;15.46;95.35
73297;BME280;61524;50.938;11.396;2023-07-20T04:50:41;98780.19;;;15.60;95.32
73297;BME280;61524;50.938;11.396;2023-07-20T04:53:08;98774.97;;;15.74;95.27
73297;BME280;61524;50.938;11.396;2023-07-20T04:55:35;98789.88;;;15.90;94.69
73297;BME280;61524;50.938;11.396;2023-07-20T04:58:02;98789.09;;;16.09;94.52
73297;BME280;61524;50.938;11.396;2023-07-20T05:00:34;98788.16;;;16.18;94.79
73297;BME280;61524;50.938;11.396;2023-07-20T05:03:00;98780.41;;;16.54;92.61
73297;BME280;61524;50.938;11.396;2023-07-20T05:05:26;98780.25;;;16.84;92.04
73297;BME280;61524;50.938;11.396;2023-07-20T05:07:51;98781.75;;;17.09;90.11
73297;BME280;61524;50.938;11.396;2023-07-20T05:10:17;98791.13;;;16.97;90.15
73297;BME280;61524;50.938;11.396;2023-07-20T05:12:43;98777.94;;;17.10;89.20
73297;BME280;61524;50.938;11.396;2023-07-20T05:15:09;98774.63;;;17.59;88.35
73297;BME280;61524;50.938;11.396;2023-07-20T05:17:34;98785.03;;;18.34;84.62
73297;BME280;61524;50.938;11.396;2023-07-20T05:20:00;98781.03;;;18.32;84.58
73297;BME280;61524;50.938;11.396;2023-07-20T05:22:25;98797.94;;;18.87;82.85
73297;BME280;61524;50.938;11.396;2023-07-20T05:24:51;98799.84;;;18.87;83.44
73297;BME280;61524;50.938;11.396;2023-07-20T05:27:16;98795.47;;;18.77;82.77
73297;BME280;61524;50.938;11.396;2023-07-20T05:29:45;98794.31;;;19.14;81.64
73297;BME280;61524;50.938;11.396;2023-07-20T05:32:12;98787.72;;;20.00;79.10
73297;BME280;61524;50.938;11.396;2023-07-20T05:34:37;98791.69;;;19.94;79.00
73297;BME280;61524;50.938;11.396;2023-07-20T05:37:03;98784.81;;;19.26;81.09
73297;BME280;61524;50.938;11.396;2023-07-20T05:39:28;98785.06;;;19.15;82.08
73297;BME280;61524;50.938;11.396;2023-07-20T05:41:54;98795.19;;;18.65;82.79
73297;BME280;61524;50.938;11.396;2023-07-20T05:44:19;98790.97;;;18.36;83.66
73297;BME280;61524;50.938;11.396;2023-07-20T05:46:45;98795.50;;;18.00;85.12
73297;BME280;61524;50.938;11.396;2023-07-20T05:49:10;98789.69;;;18.06;85.05
73297;BME280;61524;50.938;11.396;2023-07-20T05:51:35;98792.59;;;18.10;84.40
73297;BME280;61524;50.938;11.396;2023-07-20T05:54:01;98789.50;;;18.03;84.96
73297;BME280;61524;50.938;11.396;2023-07-20T05:56:27;98782.88;;;18.73;83.25
73297;BME280;61524;50.938;11.396;2023-07-20T05:58:52;98786.31;;;19.09;81.22
73297;BME280;61524;50.938;11.396;2023-07-20T06:01:18;98776.47;;;18.91;81.99
73297;BME280;61524;50.938;11.396;2023-07-20T06:03:44;98788.66;;;19.02;82.36
73297;BME280;61524;50.938;11.396;2023-07-20T06:06:09;98775.31;;;19.59;80.20
73297;BME280;61524;50.938;11.396;2023-07-20T06:08:37;98771.66;;;19.41;80.25
73297;BME280;61524;50.938;11.396;2023-07-20T06:11:02;98778.19;;;19.09;80.26
73297;BME280;61524;50.938;11.396;2023-07-20T06:13:28;98779.09;;;19.05;81.06
73297;BME280;61524;50.938;11.396;2023-07-20T06:15:53;98772.63;;;18.83;81.37
73297;BME280;61524;50.938;11.396;2023-07-20T06:18:22;98786.72;;;18.44;82.32
73297;BME280;61524;50.938;11.396;2023-07-20T06:20:51;98797.69;;;18.61;82.75
73297;BME280;61524;50.938;11.396;2023-07-20T06:23:18;98783.72;;;19.27;80.66
73297;BME280;61524;50.938;11.396;2023-07-20T06:25:44;98790.78;;;20.07;78.46
73297;BME280;61524;50.938;11.396;2023-07-20T06:28:09;98783.97;;;21.14;75.30
73297;BME280;61524;50.938;11.396;2023-07-20T06:30:34;98790.03;;;21.28;73.30
73297;BME280;61524;50.938;11.396;2023-07-20T06:33:00;98781.34;;;21.52;73.57
73297;BME280;61524;50.938;11.396;2023-07-20T06:35:25;98783.41;;;22.32;71.35
73297;BME280;61524;50.938;11.396;2023-07-20T06:37:51;98774.09;;;22.33;70.27
73297;BME280;61524;50.938;11.396;2023-07-20T06:40:17;98772.13;;;21.36;71.83
73297;BME280;61524;50.938;11.396;2023-07-20T06:42:43;98775.66;;;21.36;73.44
73297;BME280;61524;50.938;11.396;2023-07-20T06:45:09;98785.59;;;21.32;72.80
73297;BME280;61524;50.938;11.396;2023-07-20T06:47:34;98778.38;;;21.28;72.72
73297;BME280;61524;50.938;11.396;2023-07-20T06:50:00;98776.06;;;21.64;71.58
73297;BME280;61524;50.938;11.396;2023-07-20T06:52:25;98775.50;;;21.80;70.89
73297;BME280;61524;50.938;11.396;2023-07-20T06:54:51;98776.06;;;21.64;70.66
73297;BME280;61524;50.938;11.396;2023-07-20T06:57:16;98784.06;;;22.29;69.08
73297;BME280;61524;50.938;11.396;2023-07-20T06:59:42;98782.75;;;22.97;67.31
73297;BME280;61524;50.938;11.396;2023-07-20T07:02:08;98782.22;;;23.62;62.96
73297;BME280;61524;50.938;11.396;2023-07-20T07:04:33;98785.78;;;22.12;66.37
73297;BME280;61524;50.938;11.396;2023-07-20T07:06:59;98792.66;;;21.71;67.84
73297;BME280;61524;50.938;11.396;2023-07-20T07:09:25;98787.84;;;21.68;68.78
73297;BME280;61524;50.938;11.396;2023-07-20T07:11:50;98786.41;;;21.15;69.32
73297;BME280;61524;50.938;11.396;2023-07-20T07:14:16;98784.69;;;20.93;69.03
73297;BME280;61524;50.938;11.396;2023-07-20T07:16:42;98801.59;;;20.90;70.79
73297;BME280;61524;50.938;11.396;2023-07-20T07:19:07;98789.53;;;22.29;65.65
73297;BME280;61524;50.938;11.396;2023-07-20T07:21:33;98786.31;;;22.26;65.13
73297;BME280;61524;50.938;11.396;2023-07-20T07:23:59;98789.94;;;21.71;66.58
73297;BME280;61524;50.938;11.396;2023-07-20T07:26:25;98789.56;;;21.35;66.99
73297;BME280;61524;50.938;11.396;2023-07-20T07:28:50;98790.19;;;21.49;67.65
73297;BME280;61524;50.938;11.396;2023-07-20T07:31:16;98798.53;;;21.09;69.17
73297;BME280;61524;50.938;11.396;2023-07-20T07:33:41;98785.00;;;22.03;66.64
73297;BME280;61524;50.938;11.396;2023-07-20T07:36:07;98795.47;;;23.26;63.93
73297;BME280;61524;50.938;11.396;2023-07-20T07:38:32;98796.72;;;23.74;61.36
73297;BME280;61524;50.938;11.396;2023-07-20T07:40:58;98803.50;;;22.90;62.82
73297;BME280;61524;50.938;11.396;2023-07-20T07:43:24;98784.47;;;22.10;64.70
73297;BME280;61524;50.938;11.396;2023-07-20T07:45:53;98803.63;;;21.84;66.59
73297;BME280;61524;50.938;11.396;2023-07-20T07:48:18;98787.34;;;23.05;65.34
73297;BME280;61524;50.938;11.396;2023-07-20T07:50:45;98795.03;;;23.37;64.37
73297;BME280;61524;50.938;11.396;2023-07-20T07:53:11;98793.44;;;22.40;63.96
73297;BME280;61524;50.938;11.396;2023-07-20T07:55:36;98796.91;;;21.43;65.87
73297;BME280;61524;50.938;11.396;2023-07-20T07:58:02;98790.69;;;21.34;67.38
73297;BME280;61524;50.938;11.396;2023-07-20T08:00:27;98788.63;;;21.13;66.40
73297;BME280;61524;50.938;11.396;2023-07-20T08:02:53;98797.94;;;20.95;67.53
73297;BME280;61524;50.938;11.396;2023-07-20T08:05:18;98790.81;;;21.46;67.84
73297;BME280;61524;50.938;11.396;2023-07-20T08:07:44;98797.88;;;22.23;65.90
73297;BME280;61524;50.938;11.396;2023-07-20T08:10:10;98791.63;;;22.44;65.70
73297;BME280;61524;50.938;11.396;2023-07-20T08:12:35;98780.94;;;22.18;65.90
73297;BME280;61524;50.938;11.396;2023-07-20T08:15:01;98795.19;;;21.77;66.15
73297;BME280;61524;50.938;11.396;2023-07-20T08:17:26;98803.81;;;21.14;66.18
73297;BME280;61524;50.938;11.396;2023-07-20T08:19:52;98802.22;;;20.96;66.66
73297;BME280;61524;50.938;11.396;2023-07-20T08:22:17;98790.78;;;22.01;65.44
73297;BME280;61524;50.938;11.396;2023-07-20T08:24:43;98796.22;;;22.31;65.10
73297;BME280;61524;50.938;11.396;2023-07-20T08:27:09;98797.81;;;21.64;64.47
73297;BME280;61524;50.938;11.396;2023-07-20T08:29:35;98795.38;;;22.39;63.32
73297;BME280;61524;50.938;11.396;2023-07-20T08:32:01;98799.56;;;22.99;61.85
73297;BME280;61524;50.938;11.396;2023-07-20T08:34:27;98795.66;;;22.67;60.19
73297;BME280;61524;50.938;11.396;2023-07-20T08:36:53;98795.78;;;21.91;61.30
73297;BME280;61524;50.938;11.396;2023-07-20T08:39:18;98794.28;;;22.02;61.62
73297;BME280;61524;50.938;11.396;2023-07-20T08:41:44;98791.69;;;22.14;62.45
73297;BME280;61524;50.938;11.396;2023-07-20T08:44:10;98782.97;;;21.91;63.66
73297;BME280;61524;50.938;11.396;2023-07-20T08:46:36;98786.16;;;21.93;63.42
73297;BME280;61524;50.938;11.396;2023-07-20T08:49:03;98785.81;;;21.65;62.76
73297;BME280;61524;50.938;11.396;2023-07-20T08:51:30;98787.53;;;21.70;63.90
73297;BME280;61524;50.938;11.396;2023-07-20T08:53:56;98790.84;;;21.37;63.78
73297;BME280;61524;50.938;11.396;2023-07-20T08:56:24;98795.69;;;20.97;65.09
73297;BME280;61524;50.938;11.396;2023-07-20T08:58:51;98794.91;;;20.62;66.94
73297;BME280;61524;50.938;11.396;2023-07-20T09:01:18;98802.03;;;20.40;68.43
73297;BME280;61524;50.938;11.396;2023-07-20T09:03:45;98804.56;;;20.37;70.78
73297;BME280;61524;50.938;11.396;2023-07-20T09:06:12;98793.72;;;20.37;70.96
73297;BME280;61524;50.938;11.396;2023-07-20T09:08:38;98805.13;;;20.56;70.67
73297;BME280;61524;50.938;11.396;2023-07-20T09:11:04;98809.25;;;20.97;69.55
73297;BME280;61524;50.938;11.396;2023-07-20T09:13:29;98805.03;;;21.90;66.32
73297;BME280;61524;50.938;11.396;2023-07-20T09:15:55;98803.31;;;22.23;63.85
73297;BME280;61524;50.938;11.396;2023-07-20T09:18:31;98800.16;;;22.42;61.10
73297;BME280;61524;50.938;11.396;2023-07-20T09:21:04;98802.88;;;23.38;62.60
73297;BME280;61524;50.938;11.396;2023-07-20T09:23:34;98793.41;;;23.23;62.56
73297;BME280;61524;50.938;11.396;2023-07-20T09:26:00;98796.69;;;22.54;61.98
73297;BME280;61524;50.938;11.396;2023-07-20T09:28:25;98793.63;;;22.35;61.97
73297;BME280;61524;50.938;11.396;2023-07-20T09:30:51;98800.44;;;22.20;62.83
73297;BME280;61524;50.938;11.396;2023-07-20T09:33:24;98800.91;;;22.22;61.89
73297;BME280;61524;50.938;11.396;2023-07-20T09:35:49;98783.53;;;22.35;61.80
73297;BME280;61524;50.938;11.396;2023-07-20T09:38:15;98780.56;;;22.49;61.06
73297;BME280;61524;50.938;11.396;2023-07-20T09:40:41;98791.22;;;22.12;61.24
73297;BME280;61524;50.938;11.396;2023-07-20T09:43:10;98791.63;;;21.85;62.25
73297;BME280;61524;50.938;11.396;2023-07-20T09:45:40;98805.31;;;21.67;62.78
73297;BME280;61524;50.938;11.396;2023-07-20T09:48:08;98803.94;;;21.35;62.84
73297;BME280;61524;50.938;11.396;2023-07-20T09:50:39;98811.47;;;21.04;64.09
73297;BME280;61524;50.938;11.396;2023-07-20T09:53:06;98814.06;;;21.00;63.91
73297;BME280;61524;50.938;11.396;2023-07-20T09:55:33;98818.84;;;20.68;65.04
73297;BME280;61524;50.938;11.396;2023-07-20T09:58:00;98821.31;;;20.39;66.52
73297;BME280;61524;50.938;11.396;2023-07-20T10:00:25;98824.31;;;20.20;67.84
73297;BME280;61524;50.938;11.396;2023-07-20T10:02:51;98836.81;;;20.30;68.52
73297;BME280;61524;50.938;11.396;2023-07-20T10:05:18;98853.59;;;19.92;70.75
73297;BME280;61524;50.938;11.396;2023-07-20T10:07:47;98846.34;;;19.56;71.23
73297;BME280;61524;50.938;11.396;2023-07-20T10:10:18;63107.13;;;-143.77;100.00
73297;BME280;61524;50.938;11.396;2023-07-20T10:12:47;63107.13;;;-143.77;100.00
73297;BME280;61524;50.938;11.396;2023-07-20T10:15:28;63107.13;;;-143.77;100.00
73297;BME280;61524;50.938;11.396;2023-07-20T10:18:49;63107.13;;;-143.77;100.00
73297;BME280;61524;50.938;11.396;2023-07-20T10:20:49;63107.13;;;-143.77;100.00
73297;BME280;61524;50.938;11.396;2023-07-20T10:23:17;63107.13;;;-143.77;100.00
73297;BME280;61524;50.938;11.396;2023-07-20T10:25:43;63107.13;;;-143.77;100.00
73297;BME280;61524;50.938;11.396;2023-07-20T10:28:10;63107.13;;;-143.77;100.00
73297;BME280;61524;50.938;11.396;2023-07-20T10:30:36;63107.13;;;-143.77;100.00
73297;BME280;61524;50.938;11.396;2023-07-20T10:33:03;63107.13;;;-143.77;100.00
73297;BME280;61524;50.938;11.396;2023-07-20T10:35:29;63107.13;;;-143.77;100.00
73297;BME280;61524;50.938;11.396;2023-07-20T10:38:01;63107.13;;;-143.77;100.00
73297;BME280;61524;50.938;11.396;2023-07-20T10:43:01;63107.13;;;-143.77;100.00
73297;BME280;61524;50.938;11.396;2023-07-20T10:45:36;63107.13;;;-143.77;100.00
73297;BME280;61524;50.938;11.396;2023-07-20T10:48:05;63107.13;;;-143.77;100.00
73297;BME280;61524;50.938;11.396;2023-07-20T10:50:32;63107.13;;;-143.77;100.00
73297;BME280;61524;50.938;11.396;2023-07-20T10:53:25;63107.13;;;-143.77;100.00
73297;BME280;61524;50.938;11.396;2023-07-20T10:56:06;63107.13;;;-143.77;100.00
73297;BME280;61524;50.938;11.396;2023-07-20T10:58:31;63107.13;;;-143.77;100.00
73297;BME280;61524;50.938;11.396;2023-07-20T11:01:03;63107.13;;;-143.77;100.00
73297;BME280;61524;50.938;11.396;2023-07-20T11:03:40;63107.13;;;-143.77;100.00
73297;BME280;61524;50.938;11.396;2023-07-20T11:11:28;63107.13;;;-143.77;100.00
73297;BME280;61524;50.938;11.396;2023-07-20T11:13:55;63107.13;;;-143.77;100.00
73297;BME280;61524;50.938;11.396;2023-07-20T11:16:43;63107.13;;;-143.77;100.00
73297;BME280;61524;50.938;11.396;2023-07-20T11:19:26;63107.13;;;-143.77;100.00
73297;BME280;61524;50.938;11.396;2023-07-20T11:21:53;63107.13;;;-143.77;100.00
73297;BME280;61524;50.938;11.396;2023-07-20T11:24:19;63107.13;;;-143.77;100.00
73297;BME280;61524;50.938;11.396;2023-07-20T11:26:54;63107.13;;;-143.77;100.00
73297;BME280;61524;50.938;11.396;2023-07-20T11:29:22;63107.13;;;-143.77;100.00
73297;BME280;61524;50.938;11.396;2023-07-20T11:31:48;63107.13;;;-143.77;100.00
73297;BME280;61524;50.938;11.396;2023-07-20T11:34:19;63107.13;;;-143.77;100.00
73297;BME280;61524;50.938;11.396;2023-07-20T11:36:49;63107.13;;;-143.77;100.00
73297;BME280;61524;50.938;11.396;2023-07-20T11:39:16;63107.13;;;-143.77;100.00
73297;BME280;61524;50.938;11.396;2023-07-20T11:41:52;63107.13;;;-143.77;100.00
73297;BME280;61524;50.938;11.396;2023-07-20T11:44:20;63107.13;;;-143.77;100.00
73297;BME280;61524;50.938;11.396;2023-07-20T11:47:06;63107.13;;;-143.77;100.00
73297;BME280;61524;50.938;11.396;2023-07-20T11:49:40;63107.13;;;-143.77;100.00
73297;BME280;61524;50.938;11.396;2023-07-20T11:52:07;63107.13;;;-143.77;100.00
73297;BME280;61524;50.938;11.396;2023-07-20T11:54:34;63107.13;;;-143.77;100.00
73297;BME280;61524;50.938;11.396;2023-07-20T11:57:03;63107.13;;;-143.77;100.00
73297;BME280;61524;50.938;11.396;2023-07-20T11:59:29;63107.13;;;-143.77;100.00
73297;BME280;61524;50.938;11.396;2023-07-20T12:01:54;63107.13;;;-143.77;100.00
73297;BME280;61524;50.938;11.396;2023-07-20T12:04:22;63107.13;;;-143.77;100.00
73297;BME280;61524;50.938;11.396;2023-07-20T12:06:48;63107.13;;;-143.77;100.00
73297;BME280;61524;50.938;11.396;2023-07-20T12:09:14;63107.13;;;-143.77;100.00
73297;BME280;61524;50.938;11.396;2023-07-20T12:11:43;63107.13;;;-143.77;100.00
73297;BME280;61524;50.938;11.396;2023-07-20T12:14:09;63107.13;;;-143.77;100.00
73297;BME280;61524;50.938;11.396;2023-07-20T12:16:36;63107.13;;;-143.77;100.00
73297;BME280;61524;50.938;11.396;2023-07-20T12:19:05;63107.13;;;-143.77;100.00
73297;BME280;61524;50.938;11.396;2023-07-20T12:21:32;63107.13;;;-143.77;100.00
73297;BME280;61524;50.938;11.396;2023-07-20T12:23:59;63107.13;;;-143.77;100.00
73297;BME280;61524;50.938;11.396;2023-07-20T12:26:29;63107.13;;;-143.77;100.00
73297;BME280;61524;50.938;11.396;2023-07-20T12:28:55;63107.13;;;-143.77;100.00
73297;BME280;61524;50.938;11.396;2023-07-20T12:31:22;63107.13;;;-143.77;100.00
73297;BME280;61524;50.938;11.396;2023-07-20T12:33:49;63107.13;;;-143.77;100.00
73297;BME280;61524;50.938;11.396;2023-07-20T12:36:14;63107.13;;;-143.77;100.00
73297;BME280;61524;50.938;11.396;2023-07-20T12:38:40;63107.13;;;-143.77;100.00
73297;BME280;61524;50.938;11.396;2023-07-20T12:41:07;63107.13;;;-143.77;100.00
73297;BME280;61524;50.938;11.396;2023-07-20T12:43:33;63107.13;;;-143.77;100.00
73297;BME280;61524;50.938;11.396;2023-07-20T12:45:58;63107.13;;;-143.77;100.00
73297;BME280;61524;50.938;11.396;2023-07-20T12:48:24;63107.13;;;-143.77;100.00
73297;BME280;61524;50.938;11.396;2023-07-20T12:50:50;63107.13;;;-143.77;100.00
73297;BME280;61524;50.938;11.396;2023-07-20T12:53:16;63107.13;;;-143.77;100.00
73297;BME280;61524;50.938;11.396;2023-07-20T12:55:41;63107.13;;;-143.77;100.00
73297;BME280;61524;50.938;11.396;2023-07-20T12:58:08;63107.13;;;-143.77;100.00